sensor_id;sensor_type;location;lat;lon;timestamp;pressure;altitude;pressure_sealevel;temperature;humidity
60817;BME280;51921;51.518;-3.188;2022-08-19T00:01:35;100917.21;;;16.39;100.00
60817;BME280;51921;51.518;-3.188;2022-08-19T00:04:01;100919.25;;;15.80;100.00
60817;BME280;51921;51.518;-3.188;2022-08-19T00:06:25;100926.53;;;16.14;100.00
60817;BME280;51921;51.518;-3.188;2022-08-19T00:08:50;100924.79;;;15.65;100.00
60817;BME280;51921;51.518;-3.188;2022-08-19T00:11:15;100921.05;;;16.03;100.00
60817;BME280;51921;51.518;-3.188;2022-08-19T00:13:40;100921.14;;;15.30;100.00
60817;BME280;51921;51.518;-3.188;2022-08-19T00:16:06;100922.86;;;15.49;100.00
60817;BME280;51921;51.518;-3.188;2022-08-19T00:18:31;100918.57;;;15.25;100.00
60817;BME280;51921;51.518;-3.188;2022-08-19T00:20:57;100923.73;;;14.68;100.00
60817;BME280;51921;51.518;-3.188;2022-08-19T00:23:22;100923.67;;;14.97;100.00
60817;BME280;51921;51.518;-3.188;2022-08-19T00:25:47;100928.94;;;15.28;100.00
60817;BME280;51921;51.518;-3.188;2022-08-19T00:28:13;100929.49;;;15.42;100.00
60817;BME280;51921;51.518;-3.188;2022-08-19T00:30:38;100927.79;;;14.78;100.00
60817;BME280;51921;51.518;-3.188;2022-08-19T00:33:03;100931.65;;;15.24;100.00
60817;BME280;51921;51.518;-3.188;2022-08-19T00:35:29;100932.94;;;15.41;100.00
60817;BME280;51921;51.518;-3.188;2022-08-19T00:37:55;100933.51;;;14.76;100.00
60817;BME280;51921;51.518;-3.188;2022-08-19T00:40:20;100936.91;;;15.14;100.00
60817;BME280;51921;51.518;-3.188;2022-08-19T00:42:45;100933.53;;;15.54;100.00
60817;BME280;51921;51.518;-3.188;2022-08-19T00:45:13;100931.73;;;15.56;100.00
60817;BME280;51921;51.518;-3.188;2022-08-19T00:47:36;100928.09;;;15.80;100.00
60817;BME280;51921;51.518;-3.188;2022-08-19T00:50:02;100922.04;;;16.44;100.00
60817;BME280;51921;51.518;-3.188;2022-08-19T00:52:29;100929.35;;;15.97;100.00
60817;BME280;51921;51.518;-3.188;2022-08-19T00:54:52;100935.11;;;15.13;100.00
60817;BME280;51921;51.518;-3.188;2022-08-19T00:57:20;100932.92;;;16.40;100.00
60817;BME280;51921;51.518;-3.188;2022-08-19T00:59:46;100937.91;;;16.16;100.00
60817;BME280;51921;51.518;-3.188;2022-08-19T01:02:08;100939.98;;;15.74;100.00
60817;BME280;51921;51.518;-3.188;2022-08-19T01:04:34;100931.70;;;15.85;100.00
60817;BME280;51921;51.518;-3.188;2022-08-19T01:06:59;100928.26;;;15.80;100.00
60817;BME280;51921;51.518;-3.188;2022-08-19T01:09:24;100925.92;;;16.47;100.00
60817;BME280;51921;51.518;-3.188;2022-08-19T01:11:50;100926.02;;;16.11;100.00
60817;BME280;51921;51.518;-3.188;2022-08-19T01:14:15;100938.30;;;16.05;100.00
60817;BME280;51921;51.518;-3.188;2022-08-19T01:16:41;100929.94;;;15.43;100.00
60817;BME280;51921;51.518;-3.188;2022-08-19T01:19:11;100930.32;;;15.39;100.00
60817;BME280;51921;51.518;-3.188;2022-08-19T01:21:34;100925.56;;;16.76;100.00
60817;BME280;51921;51.518;-3.188;2022-08-19T01:23:57;100925.30;;;16.02;100.00
60817;BME280;51921;51.518;-3.188;2022-08-19T01:26:23;100934.48;;;15.62;100.00
60817;BME280;51921;51.518;-3.188;2022-08-19T01:28:50;100933.53;;;15.92;100.00
60817;BME280;51921;51.518;-3.188;2022-08-19T01:31:14;100933.56;;;16.13;100.00
60817;BME280;51921;51.518;-3.188;2022-08-19T01:33:38;100931.94;;;16.16;100.00
60817;BME280;51921;51.518;-3.188;2022-08-19T01:36:06;100931.21;;;16.87;100.00
60817;BME280;51921;51.518;-3.188;2022-08-19T01:38:28;100934.67;;;16.58;100.00
60817;BME280;51921;51.518;-3.188;2022-08-19T01:40:54;100934.20;;;17.73;98.24
60817;BME280;51921;51.518;-3.188;2022-08-19T01:43:19;100938.38;;;16.84;100.00
60817;BME280;51921;51.518;-3.188;2022-08-19T01:45:45;100933.89;;;15.76;100.00
60817;BME280;51921;51.518;-3.188;2022-08-19T01:48:12;100933.52;;;15.55;100.00
60817;BME280;51921;51.518;-3.188;2022-08-19T01:50:36;100940.43;;;15.18;100.00
60817;BME280;51921;51.518;-3.188;2022-08-19T01:53:04;100946.48;;;15.16;100.00
60817;BME280;51921;51.518;-3.188;2022-08-19T01:55:27;100942.71;;;14.94;100.00
60817;BME280;51921;51.518;-3.188;2022-08-19T01:57:56;100947.22;;;15.13;100.00
60817;BME280;51921;51.518;-3.188;2022-08-19T02:00:19;100952.97;;;15.34;100.00
60817;BME280;51921;51.518;-3.188;2022-08-19T02:02:43;100954.66;;;14.86;100.00
60817;BME280;51921;51.518;-3.188;2022-08-19T02:05:09;100949.64;;;15.68;100.00
60817;BME280;51921;51.518;-3.188;2022-08-19T02:07:34;100949.84;;;14.87;100.00
60817;BME280;51921;51.518;-3.188;2022-08-19T02:10:01;100951.22;;;14.60;100.00
60817;BME280;51921;51.518;-3.188;2022-08-19T02:12:24;100951.21;;;15.08;100.00
60817;BME280;51921;51.518;-3.188;2022-08-19T02:14:50;100946.94;;;14.64;100.00
60817;BME280;51921;51.518;-3.188;2022-08-19T02:17:15;100948.28;;;14.98;100.00
60817;BME280;51921;51.518;-3.188;2022-08-19T02:19:40;100947.84;;;15.55;100.00
60817;BME280;51921;51.518;-3.188;2022-08-19T02:22:06;100948.83;;;15.27;100.00
60817;BME280;51921;51.518;-3.188;2022-08-19T02:24:31;100947.52;;;15.13;100.00
60817;BME280;51921;51.518;-3.188;2022-08-19T02:26:57;100946.63;;;15.72;100.00
60817;BME280;51921;51.518;-3.188;2022-08-19T02:29:22;100943.90;;;15.73;98.76
60817;BME280;51921;51.518;-3.188;2022-08-19T02:31:48;100948.46;;;14.75;100.00
60817;BME280;51921;51.518;-3.188;2022-08-19T02:34:13;100944.90;;;16.28;96.70
60817;BME280;51921;51.518;-3.188;2022-08-19T02:36:38;100948.71;;;16.79;93.94
60817;BME280;51921;51.518;-3.188;2022-08-19T02:39:04;100951.14;;;16.03;95.38
60817;BME280;51921;51.518;-3.188;2022-08-19T02:41:32;100957.47;;;15.50;97.34
60817;BME280;51921;51.518;-3.188;2022-08-19T02:43:55;100951.99;;;16.71;93.99
60817;BME280;51921;51.518;-3.188;2022-08-19T02:46:24;100957.17;;;16.35;93.95
60817;BME280;51921;51.518;-3.188;2022-08-19T02:48:45;100959.01;;;15.93;95.50
60817;BME280;51921;51.518;-3.188;2022-08-19T02:51:16;100957.85;;;16.02;94.16
60817;BME280;51921;51.518;-3.188;2022-08-19T02:53:36;100956.39;;;16.15;94.26
60817;BME280;51921;51.518;-3.188;2022-08-19T02:56:06;100958.67;;;16.40;92.04
60817;BME280;51921;51.518;-3.188;2022-08-19T02:58:27;100958.50;;;15.65;92.33
60817;BME280;51921;51.518;-3.188;2022-08-19T03:00:54;100958.80;;;17.29;88.50
60817;BME280;51921;51.518;-3.188;2022-08-19T03:03:19;100951.56;;;17.73;86.16
60817;BME280;51921;51.518;-3.188;2022-08-19T03:05:43;100951.41;;;16.83;89.47
60817;BME280;51921;51.518;-3.188;2022-08-19T03:08:09;100950.82;;;16.99;90.33
60817;BME280;51921;51.518;-3.188;2022-08-19T03:10:41;100957.83;;;16.69;91.46
60817;BME280;51921;51.518;-3.188;2022-08-19T03:12:59;100963.84;;;17.36;87.89
60817;BME280;51921;51.518;-3.188;2022-08-19T03:15:25;100965.21;;;17.44;86.05
60817;BME280;51921;51.518;-3.188;2022-08-19T03:17:50;100968.86;;;16.89;88.66
60817;BME280;51921;51.518;-3.188;2022-08-19T03:20:15;100973.52;;;16.54;89.00
60817;BME280;51921;51.518;-3.188;2022-08-19T03:22:41;100981.13;;;17.08;87.19
60817;BME280;51921;51.518;-3.188;2022-08-19T03:25:07;100979.28;;;17.38;85.39
60817;BME280;51921;51.518;-3.188;2022-08-19T03:27:31;100982.53;;;17.26;84.77
60817;BME280;51921;51.518;-3.188;2022-08-19T03:29:57;100984.41;;;16.89;86.07
60817;BME280;51921;51.518;-3.188;2022-08-19T03:32:22;100988.56;;;16.55;86.41
60817;BME280;51921;51.518;-3.188;2022-08-19T03:34:48;100992.14;;;16.78;86.04
60817;BME280;51921;51.518;-3.188;2022-08-19T03:37:13;100992.21;;;17.46;85.49
60817;BME280;51921;51.518;-3.188;2022-08-19T03:39:39;100994.59;;;17.27;84.69
60817;BME280;51921;51.518;-3.188;2022-08-19T03:42:04;100996.36;;;16.83;84.77
60817;BME280;51921;51.518;-3.188;2022-08-19T03:44:30;100999.79;;;17.33;83.56
60817;BME280;51921;51.518;-3.188;2022-08-19T03:46:56;101005.06;;;17.85;80.83
60817;BME280;51921;51.518;-3.188;2022-08-19T03:49:20;101007.12;;;16.43;84.28
60817;BME280;51921;51.518;-3.188;2022-08-19T03:51:47;101008.15;;;17.84;80.16
60817;BME280;51921;51.518;-3.188;2022-08-19T03:54:12;101011.22;;;17.02;81.92
60817;BME280;51921;51.518;-3.188;2022-08-19T03:56:37;101014.59;;;16.68;84.44
60817;BME280;51921;51.518;-3.188;2022-08-19T03:59:02;101018.09;;;16.26;84.93
60817;BME280;51921;51.518;-3.188;2022-08-19T04:01:28;101018.47;;;16.68;82.77
60817;BME280;51921;51.518;-3.188;2022-08-19T04:03:52;101024.94;;;16.57;84.22
60817;BME280;51921;51.518;-3.188;2022-08-19T04:06:20;101022.66;;;16.81;82.84
60817;BME280;51921;51.518;-3.188;2022-08-19T04:08:45;101034.15;;;15.95;85.28
60817;BME280;51921;51.518;-3.188;2022-08-19T04:11:09;101032.16;;;16.88;84.00
60817;BME280;51921;51.518;-3.188;2022-08-19T04:13:33;101037.26;;;15.74;87.49
60817;BME280;51921;51.518;-3.188;2022-08-19T04:15:59;101035.41;;;16.31;85.38
60817;BME280;51921;51.518;-3.188;2022-08-19T04:18:24;101034.58;;;17.98;77.33
60817;BME280;51921;51.518;-3.188;2022-08-19T04:20:50;101038.49;;;16.77;82.60
60817;BME280;51921;51.518;-3.188;2022-08-19T04:23:15;101048.15;;;16.09;83.65
60817;BME280;51921;51.518;-3.188;2022-08-19T04:25:43;101048.46;;;16.63;82.40
60817;BME280;51921;51.518;-3.188;2022-08-19T04:28:06;101047.00;;;18.01;77.76
60817;BME280;51921;51.518;-3.188;2022-08-19T04:32:56;101050.30;;;15.63;85.44
60817;BME280;51921;51.518;-3.188;2022-08-19T04:35:22;101054.34;;;15.36;86.97
60817;BME280;51921;51.518;-3.188;2022-08-19T04:37:47;101057.10;;;16.03;86.24
60817;BME280;51921;51.518;-3.188;2022-08-19T04:40:13;101057.24;;;16.48;82.09
60817;BME280;51921;51.518;-3.188;2022-08-19T04:42:38;101059.87;;;16.62;81.06
60817;BME280;51921;51.518;-3.188;2022-08-19T04:45:04;101065.19;;;16.60;80.72
60817;BME280;51921;51.518;-3.188;2022-08-19T04:47:29;101061.14;;;17.51;74.55
60817;BME280;51921;51.518;-3.188;2022-08-19T04:49:54;101067.94;;;16.99;78.10
60817;BME280;51921;51.518;-3.188;2022-08-19T04:52:20;101076.61;;;16.46;77.89
60817;BME280;51921;51.518;-3.188;2022-08-19T04:54:45;101083.54;;;17.21;77.53
60817;BME280;51921;51.518;-3.188;2022-08-19T04:57:11;101089.60;;;16.21;78.61
60817;BME280;51921;51.518;-3.188;2022-08-19T04:59:36;101092.96;;;16.26;78.88
60817;BME280;51921;51.518;-3.188;2022-08-19T05:02:01;101090.03;;;14.56;87.76
60817;BME280;51921;51.518;-3.188;2022-08-19T05:04:26;101093.76;;;16.19;80.72
60817;BME280;51921;51.518;-3.188;2022-08-19T05:06:52;101090.88;;;16.65;77.68
60817;BME280;51921;51.518;-3.188;2022-08-19T05:09:17;101092.40;;;16.86;75.42
60817;BME280;51921;51.518;-3.188;2022-08-19T05:11:43;101093.05;;;16.45;75.13
60817;BME280;51921;51.518;-3.188;2022-08-19T05:14:09;101092.83;;;16.93;74.43
60817;BME280;51921;51.518;-3.188;2022-08-19T05:16:33;101096.26;;;16.60;74.01
60817;BME280;51921;51.518;-3.188;2022-08-19T05:18:59;101098.04;;;16.34;73.95
60817;BME280;51921;51.518;-3.188;2022-08-19T05:21:25;101102.80;;;16.37;75.20
60817;BME280;51921;51.518;-3.188;2022-08-19T05:23:50;101105.49;;;17.13;71.98
60817;BME280;51921;51.518;-3.188;2022-08-19T05:26:15;101110.16;;;17.42;70.43
60817;BME280;51921;51.518;-3.188;2022-08-19T05:28:40;101115.09;;;17.42;70.48
60817;BME280;51921;51.518;-3.188;2022-08-19T05:31:06;101117.51;;;16.85;71.54
60817;BME280;51921;51.518;-3.188;2022-08-19T05:33:31;101123.56;;;17.24;69.67
60817;BME280;51921;51.518;-3.188;2022-08-19T05:35:56;101129.50;;;17.12;70.22
60817;BME280;51921;51.518;-3.188;2022-08-19T05:38:22;101136.25;;;16.25;71.03
60817;BME280;51921;51.518;-3.188;2022-08-19T05:40:47;101138.46;;;17.19;68.44
60817;BME280;51921;51.518;-3.188;2022-08-19T05:43:13;101142.07;;;17.35;68.22
60817;BME280;51921;51.518;-3.188;2022-08-19T05:45:39;101143.31;;;17.56;67.25
60817;BME280;51921;51.518;-3.188;2022-08-19T05:48:04;101149.88;;;17.27;68.75
60817;BME280;51921;51.518;-3.188;2022-08-19T05:50:29;101154.41;;;15.31;73.13
60817;BME280;51921;51.518;-3.188;2022-08-19T05:52:54;101150.72;;;13.16;85.63
60817;BME280;51921;51.518;-3.188;2022-08-19T05:55:20;101149.73;;;13.35;89.10
60817;BME280;51921;51.518;-3.188;2022-08-19T05:57:45;101148.35;;;15.93;76.65
60817;BME280;51921;51.518;-3.188;2022-08-19T06:00:12;101149.41;;;16.30;72.78
60817;BME280;51921;51.518;-3.188;2022-08-19T06:02:36;101156.13;;;16.96;70.83
60817;BME280;51921;51.518;-3.188;2022-08-19T06:05:02;101152.96;;;15.66;76.59
60817;BME280;51921;51.518;-3.188;2022-08-19T06:07:27;101153.26;;;15.75;75.97
60817;BME280;51921;51.518;-3.188;2022-08-19T06:09:53;101148.32;;;15.31;77.82
60817;BME280;51921;51.518;-3.188;2022-08-19T06:12:17;101155.04;;;15.45;78.32
60817;BME280;51921;51.518;-3.188;2022-08-19T06:14:43;101154.50;;;14.84;80.93
60817;BME280;51921;51.518;-3.188;2022-08-19T06:17:08;101159.98;;;14.46;80.14
60817;BME280;51921;51.518;-3.188;2022-08-19T06:19:34;101158.64;;;14.75;78.95
60817;BME280;51921;51.518;-3.188;2022-08-19T06:22:00;101162.58;;;15.04;78.51
60817;BME280;51921;51.518;-3.188;2022-08-19T06:24:26;101166.27;;;14.58;79.62
60817;BME280;51921;51.518;-3.188;2022-08-19T06:26:52;101169.17;;;14.54;77.87
60817;BME280;51921;51.518;-3.188;2022-08-19T06:29:17;101172.25;;;15.75;75.96
60817;BME280;51921;51.518;-3.188;2022-08-19T06:31:43;101175.37;;;16.30;73.38
60817;BME280;51921;51.518;-3.188;2022-08-19T06:34:06;101174.95;;;15.85;71.93
60817;BME280;51921;51.518;-3.188;2022-08-19T06:36:34;101177.22;;;16.06;71.76
60817;BME280;51921;51.518;-3.188;2022-08-19T06:38:57;101177.68;;;16.97;66.07
60817;BME280;51921;51.518;-3.188;2022-08-19T06:41:22;101180.99;;;18.22;62.46
60817;BME280;51921;51.518;-3.188;2022-08-19T06:43:47;101181.19;;;17.46;62.55
60817;BME280;51921;51.518;-3.188;2022-08-19T06:46:14;101181.19;;;16.39;66.37
60817;BME280;51921;51.518;-3.188;2022-08-19T06:48:38;101177.66;;;15.36;70.40
60817;BME280;51921;51.518;-3.188;2022-08-19T06:51:04;101175.03;;;14.71;73.87
60817;BME280;51921;51.518;-3.188;2022-08-19T06:53:29;101175.25;;;15.36;72.58
60817;BME280;51921;51.518;-3.188;2022-08-19T06:55:55;101175.97;;;14.84;73.48
60817;BME280;51921;51.518;-3.188;2022-08-19T06:58:20;101176.00;;;15.13;72.37
60817;BME280;51921;51.518;-3.188;2022-08-19T07:00:45;101179.36;;;15.50;71.52
60817;BME280;51921;51.518;-3.188;2022-08-19T07:03:11;101185.64;;;16.49;68.92
60817;BME280;51921;51.518;-3.188;2022-08-19T07:05:40;101182.84;;;15.30;72.42
60817;BME280;51921;51.518;-3.188;2022-08-19T07:08:02;101184.17;;;15.94;69.60
60817;BME280;51921;51.518;-3.188;2022-08-19T07:10:27;101186.72;;;15.58;70.54
60817;BME280;51921;51.518;-3.188;2022-08-19T07:12:52;101187.78;;;15.61;68.85
60817;BME280;51921;51.518;-3.188;2022-08-19T07:15:18;101194.01;;;16.15;68.58
60817;BME280;51921;51.518;-3.188;2022-08-19T07:17:43;101195.36;;;15.84;68.96
60817;BME280;51921;51.518;-3.188;2022-08-19T07:20:10;101199.99;;;16.56;66.51
60817;BME280;51921;51.518;-3.188;2022-08-19T07:22:35;101199.58;;;15.74;69.14
60817;BME280;51921;51.518;-3.188;2022-08-19T07:24:59;101200.51;;;16.06;67.53
60817;BME280;51921;51.518;-3.188;2022-08-19T07:27:25;101202.43;;;15.89;66.49
60817;BME280;51921;51.518;-3.188;2022-08-19T07:29:52;101207.51;;;16.33;66.16
60817;BME280;51921;51.518;-3.188;2022-08-19T07:32:16;101206.89;;;17.25;60.06
60817;BME280;51921;51.518;-3.188;2022-08-19T07:34:41;101207.90;;;16.62;62.47
60817;BME280;51921;51.518;-3.188;2022-08-19T07:37:07;101204.73;;;15.77;67.10
60817;BME280;51921;51.518;-3.188;2022-08-19T07:39:33;101205.65;;;18.05;61.74
60817;BME280;51921;51.518;-3.188;2022-08-19T07:41:59;101204.00;;;20.90;51.86
60817;BME280;51921;51.518;-3.188;2022-08-19T07:44:22;101206.68;;;20.57;49.74
60817;BME280;51921;51.518;-3.188;2022-08-19T07:46:53;101205.92;;;23.18;42.96
60817;BME280;51921;51.518;-3.188;2022-08-19T07:49:13;101207.30;;;23.70;40.47
60817;BME280;51921;51.518;-3.188;2022-08-19T07:51:38;101206.31;;;25.61;36.90
60817;BME280;51921;51.518;-3.188;2022-08-19T07:54:04;101207.84;;;26.40;34.91
60817;BME280;51921;51.518;-3.188;2022-08-19T07:56:29;101202.08;;;24.68;36.64
60817;BME280;51921;51.518;-3.188;2022-08-19T07:58:54;101198.72;;;26.81;31.90
60817;BME280;51921;51.518;-3.188;2022-08-19T08:01:23;101200.98;;;27.89;31.59
60817;BME280;51921;51.518;-3.188;2022-08-19T08:03:45;101205.94;;;24.62;32.32
60817;BME280;51921;51.518;-3.188;2022-08-19T08:06:10;101216.05;;;24.73;31.37
60817;BME280;51921;51.518;-3.188;2022-08-19T08:08:35;101212.65;;;24.63;33.19
60817;BME280;51921;51.518;-3.188;2022-08-19T08:11:00;101219.42;;;25.71;32.11
60817;BME280;51921;51.518;-3.188;2022-08-19T08:13:26;101224.20;;;24.89;34.57
60817;BME280;51921;51.518;-3.188;2022-08-19T08:15:51;101227.65;;;23.04;36.38
60817;BME280;51921;51.518;-3.188;2022-08-19T08:18:16;101231.46;;;22.24;40.18
60817;BME280;51921;51.518;-3.188;2022-08-19T08:20:41;101234.01;;;22.64;40.18
60817;BME280;51921;51.518;-3.188;2022-08-19T08:23:07;101236.32;;;21.45;41.87
60817;BME280;51921;51.518;-3.188;2022-08-19T08:25:33;101233.41;;;21.15;42.62
60817;BME280;51921;51.518;-3.188;2022-08-19T08:27:57;101233.64;;;22.12;41.37
60817;BME280;51921;51.518;-3.188;2022-08-19T08:30:24;101232.88;;;22.32;41.18
60817;BME280;51921;51.518;-3.188;2022-08-19T08:32:49;101233.68;;;21.99;41.60
60817;BME280;51921;51.518;-3.188;2022-08-19T08:35:16;101235.79;;;20.45;45.32
60817;BME280;51921;51.518;-3.188;2022-08-19T08:37:39;101231.00;;;19.46;44.76
60817;BME280;51921;51.518;-3.188;2022-08-19T08:40:07;101236.96;;;20.52;44.79
60817;BME280;51921;51.518;-3.188;2022-08-19T08:42:32;101239.60;;;20.24;46.18
60817;BME280;51921;51.518;-3.188;2022-08-19T08:44:58;101238.53;;;18.25;49.46
60817;BME280;51921;51.518;-3.188;2022-08-19T08:47:21;101239.12;;;20.29;45.42
60817;BME280;51921;51.518;-3.188;2022-08-19T08:49:49;101242.67;;;20.30;46.31
60817;BME280;51921;51.518;-3.188;2022-08-19T08:52:13;101246.94;;;19.04;47.64
60817;BME280;51921;51.518;-3.188;2022-08-19T08:54:39;101241.86;;;20.25;45.93
60817;BME280;51921;51.518;-3.188;2022-08-19T08:57:04;101239.00;;;18.84;50.87
60817;BME280;51921;51.518;-3.188;2022-08-19T08:59:29;101243.25;;;18.27;53.71
60817;BME280;51921;51.518;-3.188;2022-08-19T09:01:51;101244.26;;;17.65;55.84
60817;BME280;51921;51.518;-3.188;2022-08-19T09:04:17;101241.92;;;17.72;56.96
60817;BME280;51921;51.518;-3.188;2022-08-19T09:06:50;101249.17;;;17.15;58.23
60817;BME280;51921;51.518;-3.188;2022-08-19T09:09:15;101245.71;;;17.06;59.79
60817;BME280;51921;51.518;-3.188;2022-08-19T09:11:43;101250.93;;;17.12;58.83
60817;BME280;51921;51.518;-3.188;2022-08-19T09:14:08;101252.93;;;17.00;60.05
60817;BME280;51921;51.518;-3.188;2022-08-19T09:16:24;101252.48;;;16.92;60.70
60817;BME280;51921;51.518;-3.188;2022-08-19T09:18:51;101257.18;;;17.13;59.62
60817;BME280;51921;51.518;-3.188;2022-08-19T09:21:15;101255.18;;;17.20;60.26
60817;BME280;51921;51.518;-3.188;2022-08-19T09:23:40;101256.94;;;16.51;60.13
60817;BME280;51921;51.518;-3.188;2022-08-19T09:26:09;101264.42;;;17.27;59.09
60817;BME280;51921;51.518;-3.188;2022-08-19T09:28:30;101261.64;;;16.94;56.46
60817;BME280;51921;51.518;-3.188;2022-08-19T09:30:56;101261.02;;;16.87;57.99
60817;BME280;51921;51.518;-3.188;2022-08-19T09:33:21;101262.05;;;15.98;61.43
60817;BME280;51921;51.518;-3.188;2022-08-19T09:35:47;101261.40;;;16.22;55.91
60817;BME280;51921;51.518;-3.188;2022-08-19T09:38:12;101265.39;;;17.01;55.32
60817;BME280;51921;51.518;-3.188;2022-08-19T09:40:37;101266.60;;;17.02;56.12
60817;BME280;51921;51.518;-3.188;2022-08-19T09:43:03;101271.30;;;17.55;56.92
60817;BME280;51921;51.518;-3.188;2022-08-19T09:45:29;101265.87;;;17.47;54.80
60817;BME280;51921;51.518;-3.188;2022-08-19T09:47:53;101262.16;;;17.37;54.42
60817;BME280;51921;51.518;-3.188;2022-08-19T09:50:19;101263.34;;;17.40;54.94
60817;BME280;51921;51.518;-3.188;2022-08-19T09:52:44;101264.35;;;18.06;51.37
60817;BME280;51921;51.518;-3.188;2022-08-19T09:55:10;101263.61;;;18.47;52.72
60817;BME280;51921;51.518;-3.188;2022-08-19T09:57:35;101255.55;;;17.74;52.82
60817;BME280;51921;51.518;-3.188;2022-08-19T10:00:00;101245.92;;;18.06;52.22
60817;BME280;51921;51.518;-3.188;2022-08-19T10:02:25;101239.35;;;17.99;50.95
60817;BME280;51921;51.518;-3.188;2022-08-19T10:04:51;101244.67;;;18.29;51.03
60817;BME280;51921;51.518;-3.188;2022-08-19T10:07:16;101242.66;;;18.24;53.06
60817;BME280;51921;51.518;-3.188;2022-08-19T10:09:41;101241.09;;;18.91;51.27
60817;BME280;51921;51.518;-3.188;2022-08-19T10:12:07;101243.86;;;18.23;48.76
60817;BME280;51921;51.518;-3.188;2022-08-19T10:14:32;101246.54;;;18.25;48.61
60817;BME280;51921;51.518;-3.188;2022-08-19T10:16:57;101250.13;;;17.90;50.28
60817;BME280;51921;51.518;-3.188;2022-08-19T10:19:22;101247.43;;;17.15;52.45
60817;BME280;51921;51.518;-3.188;2022-08-19T10:21:48;101240.89;;;17.71;52.43
60817;BME280;51921;51.518;-3.188;2022-08-19T10:24:13;101247.56;;;18.25;52.41
60817;BME280;51921;51.518;-3.188;2022-08-19T10:26:39;101243.44;;;18.08;49.64
60817;BME280;51921;51.518;-3.188;2022-08-19T10:29:04;101234.35;;;19.17;47.36
60817;BME280;51921;51.518;-3.188;2022-08-19T10:31:31;101247.44;;;18.73;46.97
60817;BME280;51921;51.518;-3.188;2022-08-19T10:33:54;101252.05;;;18.07;47.35
60817;BME280;51921;51.518;-3.188;2022-08-19T10:36:21;101250.63;;;17.24;50.44
60817;BME280;51921;51.518;-3.188;2022-08-19T10:38:46;101251.94;;;17.75;50.82
60817;BME280;51921;51.518;-3.188;2022-08-19T10:41:12;101248.34;;;17.74;48.39
60817;BME280;51921;51.518;-3.188;2022-08-19T10:43:35;101254.80;;;17.91;48.45
60817;BME280;51921;51.518;-3.188;2022-08-19T10:46:01;101249.55;;;18.00;48.76
60817;BME280;51921;51.518;-3.188;2022-08-19T10:48:26;101243.30;;;18.41;45.90
60817;BME280;51921;51.518;-3.188;2022-08-19T10:50:51;101243.28;;;18.57;45.88
60817;BME280;51921;51.518;-3.188;2022-08-19T10:53:17;101243.07;;;18.83;47.49
60817;BME280;51921;51.518;-3.188;2022-08-19T10:55:45;101250.69;;;18.72;44.83
60817;BME280;51921;51.518;-3.188;2022-08-19T10:58:12;101254.99;;;17.42;47.90
60817;BME280;51921;51.518;-3.188;2022-08-19T11:00:32;101256.16;;;17.60;47.82
60817;BME280;51921;51.518;-3.188;2022-08-19T11:02:58;101258.31;;;16.54;50.73
60817;BME280;51921;51.518;-3.188;2022-08-19T11:05:24;101263.78;;;16.80;50.09
60817;BME280;51921;51.518;-3.188;2022-08-19T11:07:49;101255.02;;;16.90;50.80
60817;BME280;51921;51.518;-3.188;2022-08-19T11:10:14;101265.49;;;16.59;51.63
60817;BME280;51921;51.518;-3.188;2022-08-19T11:12:40;101260.86;;;16.89;51.95
60817;BME280;51921;51.518;-3.188;2022-08-19T11:15:06;101260.39;;;17.35;50.07
60817;BME280;51921;51.518;-3.188;2022-08-19T11:17:30;101267.26;;;17.93;48.86
60817;BME280;51921;51.518;-3.188;2022-08-19T11:19:55;101266.16;;;17.65;48.52
60817;BME280;51921;51.518;-3.188;2022-08-19T11:22:21;101269.88;;;17.05;49.64
60817;BME280;51921;51.518;-3.188;2022-08-19T11:24:46;101274.20;;;17.65;49.46
60817;BME280;51921;51.518;-3.188;2022-08-19T11:27:11;101268.35;;;17.42;48.97
60817;BME280;51921;51.518;-3.188;2022-08-19T11:29:38;101268.81;;;17.46;49.88
60817;BME280;51921;51.518;-3.188;2022-08-19T11:32:06;101264.39;;;17.39;48.39
60817;BME280;51921;51.518;-3.188;2022-08-19T11:34:27;101268.24;;;17.33;49.71
60817;BME280;51921;51.518;-3.188;2022-08-19T11:36:53;101263.51;;;17.44;49.73
60817;BME280;51921;51.518;-3.188;2022-08-19T11:39:20;101265.15;;;17.66;50.34
60817;BME280;51921;51.518;-3.188;2022-08-19T11:41:44;101262.16;;;18.13;48.78
60817;BME280;51921;51.518;-3.188;2022-08-19T11:44:09;101276.30;;;17.57;49.26
60817;BME280;51921;51.518;-3.188;2022-08-19T11:46:35;101267.97;;;17.33;49.81
60817;BME280;51921;51.518;-3.188;2022-08-19T11:49:00;101270.80;;;17.72;48.92
60817;BME280;51921;51.518;-3.188;2022-08-19T11:51:26;101270.03;;;18.89;46.73
60817;BME280;51921;51.518;-3.188;2022-08-19T11:53:51;101276.10;;;18.05;46.74
60817;BME280;51921;51.518;-3.188;2022-08-19T11:56:16;101268.25;;;17.16;48.49
60817;BME280;51921;51.518;-3.188;2022-08-19T11:58:41;101275.89;;;17.52;48.16
60817;BME280;51921;51.518;-3.188;2022-08-19T12:01:07;101282.78;;;17.49;47.50
60817;BME280;51921;51.518;-3.188;2022-08-19T12:03:32;101276.28;;;18.02;46.73
60817;BME280;51921;51.518;-3.188;2022-08-19T12:05:57;101270.48;;;18.68;47.94
60817;BME280;51921;51.518;-3.188;2022-08-19T12:08:22;101266.79;;;18.91;45.96
60817;BME280;51921;51.518;-3.188;2022-08-19T12:10:48;101271.09;;;18.28;48.60
60817;BME280;51921;51.518;-3.188;2022-08-19T12:13:14;101276.04;;;18.28;48.59
60817;BME280;51921;51.518;-3.188;2022-08-19T12:15:40;101276.74;;;18.56;47.34
60817;BME280;51921;51.518;-3.188;2022-08-19T12:18:04;101264.06;;;18.93;46.56
60817;BME280;51921;51.518;-3.188;2022-08-19T12:20:29;101275.47;;;18.71;46.48
60817;BME280;51921;51.518;-3.188;2022-08-19T12:22:54;101284.10;;;18.43;47.12
60817;BME280;51921;51.518;-3.188;2022-08-19T12:25:20;101279.91;;;18.14;47.20
60817;BME280;51921;51.518;-3.188;2022-08-19T12:27:45;101282.27;;;17.98;47.64
60817;BME280;51921;51.518;-3.188;2022-08-19T12:30:12;101280.46;;;18.73;46.55